createdAt,value
2019-05-15T09:12:41.530Z,63.32
2019-05-15T09:15:12.104Z,65.69
2019-05-15T09:17:42.329Z,63.75
2019-05-15T09:20:12.248Z,62.50
2019-05-15T09:22:41.687Z,61.09
2019-05-15T09:25:12.933Z,58.90
2019-05-15T09:27:43.153Z,57.10
2019-05-15T09:30:14.867Z,59.51
2019-05-15T09:32:48.685Z,62.67
2019-05-15T09:35:20.069Z,64.36
2019-05-15T09:37:54.179Z,62.91
2019-05-15T09:40:41.816Z,61.19
2019-05-15T09:42:58.336Z,59.64
2019-05-15T09:45:33.604Z,57.65
2019-05-15T09:48:02.650Z,58.42
2019-05-15T09:50:33.906Z,59.25
2019-05-15T09:53:05.607Z,63.12
2019-05-15T09:55:38.305Z,65.17
2019-05-15T09:58:08.315Z,63.39
2019-05-15T10:00:38.590Z,60.88
2019-05-15T10:03:09.571Z,58.80
2019-05-15T10:05:39.279Z,56.89
2019-05-15T10:08:09.111Z,57.39
2019-05-15T10:10:38.697Z,60.36
2019-05-15T10:13:09.011Z,62.59
2019-05-15T10:15:40.293Z,65.07
2019-05-15T10:18:10.063Z,62.77
2019-05-15T10:20:39.784Z,60.54
2019-05-15T10:23:11.493Z,60.19
2019-05-15T10:25:41.917Z,58.56
2019-05-15T10:28:15.063Z,56.83
2019-05-15T10:30:42.922Z,58.86
2019-05-15T10:33:12.243Z,60.74
2019-05-15T10:35:43.565Z,64.11
2019-05-15T10:38:16.057Z,66.06
2019-05-15T10:40:59.880Z,64.06
2019-05-15T10:43:20.707Z,60.94
2019-05-15T10:45:54.194Z,59.28
2019-05-15T10:48:32.169Z,57.75
2019-05-15T10:51:07.165Z,59.27
2019-05-15T10:53:33.114Z,61.29
2019-05-15T10:56:04.547Z,62.95
2019-05-15T10:58:35.549Z,66.21
2019-05-15T11:01:04.892Z,64.19
2019-05-15T11:03:35.064Z,62.81
2019-05-15T11:06:04.631Z,60.67
2019-05-15T11:08:40.049Z,60.65
2019-05-15T11:11:05.737Z,59.17
2019-05-15T11:13:35.063Z,57.88
2019-05-15T11:16:04.611Z,60.49
2019-05-15T11:18:34.060Z,63.05
2019-05-15T11:21:08.212Z,65.41
2019-05-15T11:23:39.448Z,63.62
2019-05-15T11:26:08.925Z,62.34
2019-05-15T11:28:40.877Z,60.07
2019-05-15T11:31:10.656Z,59.37
2019-05-15T11:33:40.414Z,57.85
2019-05-15T11:36:10.052Z,59.31
2019-05-15T11:38:40.273Z,61.50
2019-05-15T11:41:09.577Z,63.60
2019-05-15T11:43:39.200Z,68.17
2019-05-15T11:46:09.949Z,65.20
2019-05-15T11:48:41.439Z,63.83
2019-05-15T11:51:11.090Z,61.97
2019-05-15T11:53:40.506Z,61.15
2019-05-15T11:56:10.144Z,60.02
2019-05-15T11:58:41.151Z,58.90
2019-05-15T12:01:10.904Z,57.25
2019-05-15T12:03:40.309Z,59.33
2019-05-15T12:06:18.719Z,60.69
2019-05-15T12:08:40.837Z,61.34
2019-05-15T12:11:26.975Z,62.73
2019-05-15T12:13:42.208Z,67.78
2019-05-15T12:16:11.767Z,65.57
2019-05-15T12:18:48.288Z,63.43
2019-05-15T12:21:19.740Z,62.01
2019-05-15T12:23:48.757Z,60.66
2019-05-15T12:26:18.322Z,60.13
2019-05-15T12:28:49.324Z,59.06
2019-05-15T12:31:24.364Z,58.27
2019-05-15T12:33:50.311Z,60.40
2019-05-15T12:38:51.235Z,65.13
2019-05-15T13:01:32.014Z,65.40
2019-05-15T13:04:01.810Z,63.39
2019-05-15T13:06:39.988Z,62.63
2019-05-15T13:09:04.377Z,60.90
2019-05-15T13:11:34.387Z,60.13
2019-05-15T13:14:08.177Z,58.38
2019-05-15T13:16:39.029Z,58.40
2019-05-15T13:19:08.902Z,60.44
2019-05-15T13:21:41.336Z,62.56
2019-05-15T13:24:10.263Z,66.23
2019-05-15T13:26:41.262Z,64.66
2019-05-15T13:29:10.969Z,63.15
2019-05-15T13:31:42.180Z,61.85
2019-05-15T13:34:13.486Z,60.59
2019-05-15T13:36:43.448Z,60.18
2019-05-15T13:39:14.901Z,59.09
2019-05-15T13:41:44.731Z,56.99
2019-05-15T13:44:14.386Z,58.37
2019-05-15T13:46:44.075Z,60.71
2019-05-15T13:49:13.802Z,64.53
2019-05-15T13:51:43.174Z,67.13
2019-05-15T13:54:12.834Z,66.71
2019-05-15T13:56:42.556Z,63.95
2019-05-15T13:59:14.147Z,63.15
2019-05-15T14:01:43.501Z,61.16
2019-05-15T14:04:12.910Z,60.97
2019-05-15T14:06:44.987Z,60.04
2019-05-15T14:09:16.461Z,57.88
2019-05-15T14:11:49.129Z,58.59
2019-05-15T14:14:17.184Z,60.60
2019-05-15T14:16:48.939Z,60.17
2019-05-15T14:19:18.097Z,63.66
2019-05-15T14:21:49.030Z,69.34
2019-05-15T14:24:21.391Z,67.48
2019-05-15T14:27:12.972Z,66.60
2019-05-15T14:29:35.208Z,63.57
2019-05-15T14:32:11.246Z,62.62
2019-05-15T14:35:02.258Z,60.85
2019-05-15T14:38:01.580Z,60.19
2019-05-15T14:47:09.934Z,60.44
2019-05-15T14:49:45.033Z,62.21
2019-05-15T14:52:09.842Z,66.95
2019-05-15T14:54:39.101Z,66.10
2019-05-15T14:57:08.748Z,64.67
2019-05-15T14:59:38.286Z,63.40
2019-05-15T15:02:09.088Z,63.09
2019-05-15T15:04:39.219Z,62.14
2019-05-15T15:07:08.822Z,61.30
2019-05-15T15:09:37.964Z,60.05
2019-05-15T15:12:08.208Z,59.35
2019-05-15T15:14:37.928Z,60.15
2019-05-15T15:17:07.173Z,60.98
2019-05-15T15:19:38.671Z,61.93
2019-05-15T15:22:08.693Z,67.35
2019-05-15T15:24:39.015Z,66.21
2019-05-15T15:27:08.431Z,64.30
2019-05-15T15:29:38.887Z,62.91
2019-05-15T15:32:08.154Z,61.77
2019-05-15T15:34:38.925Z,61.67
2019-05-15T15:37:08.581Z,60.98
2019-05-15T15:39:38.644Z,59.63
2019-05-15T15:42:08.571Z,59.84
2019-05-15T15:44:38.117Z,59.17
2019-05-15T15:47:08.688Z,57.70
2019-05-15T15:49:38.749Z,59.60
2019-05-15T15:52:08.740Z,59.69
2019-05-15T15:54:39.478Z,63.86
2019-05-15T15:57:08.728Z,67.08
2019-05-15T15:59:38.609Z,67.08
2019-05-15T16:02:08.843Z,64.59
2019-05-15T16:04:39.215Z,63.96
2019-05-15T16:07:09.674Z,62.57
2019-05-15T16:09:38.869Z,61.95
2019-05-15T16:12:09.642Z,60.70
2019-05-15T16:14:38.969Z,60.36
2019-05-15T16:17:08.621Z,59.75
2019-05-15T16:19:38.937Z,58.63
2019-05-15T16:22:08.837Z,57.80
2019-05-15T16:24:38.667Z,59.12
2019-05-15T16:27:09.664Z,60.87
2019-05-15T16:29:39.355Z,63.19
2019-05-15T16:32:08.828Z,68.64
2019-05-15T16:34:39.306Z,66.67
2019-05-15T16:37:09.092Z,64.80
2019-05-15T16:39:38.356Z,63.43
2019-05-15T16:42:07.570Z,61.93
2019-05-15T16:44:38.393Z,61.35
2019-05-15T16:47:08.425Z,60.41
2019-05-15T16:49:39.047Z,59.76
2019-05-15T16:52:09.213Z,59.41
2019-05-15T16:54:38.670Z,58.39
2019-05-15T16:57:09.962Z,60.29
2019-05-15T16:59:39.102Z,61.09
2019-05-15T17:02:08.934Z,65.11
2019-05-15T17:04:38.307Z,68.66
2019-05-15T17:07:07.820Z,67.73
2019-05-15T17:09:38.700Z,66.30
2019-05-15T17:12:08.700Z,65.27
2019-05-15T17:14:38.800Z,63.87
2019-05-15T17:17:08.111Z,63.42
2019-05-15T17:19:37.479Z,62.70
2019-05-15T17:22:09.291Z,61.92
2019-05-15T17:24:38.747Z,61.35
2019-05-15T17:27:10.372Z,61.61
2019-05-15T17:29:38.876Z,61.10
2019-05-15T17:32:08.567Z,61.47
2019-05-15T17:34:38.106Z,60.94
2019-05-15T17:37:07.304Z,60.78
2019-05-15T17:39:38.920Z,60.44
2019-05-15T17:42:07.175Z,60.67
2019-05-15T17:44:38.239Z,60.03
2019-05-15T17:47:09.729Z,59.86
2019-05-15T17:49:38.644Z,59.30
2019-05-15T17:52:08.891Z,58.30
2019-05-15T17:54:38.100Z,59.57
2019-05-15T17:57:09.204Z,63.43
2019-05-15T17:59:38.411Z,66.51
2019-05-15T18:02:08.542Z,66.56
2019-05-15T18:04:38.762Z,64.91
2019-05-15T18:07:08.603Z,64.33
2019-05-15T18:09:50.372Z,64.22
2019-05-15T18:12:11.248Z,63.34
2019-05-15T18:14:39.606Z,63.07
2019-05-15T18:17:08.789Z,62.78
2019-05-15T18:19:38.105Z,62.86
2019-05-15T18:22:08.927Z,62.42
2019-05-15T18:24:38.389Z,62.62
2019-05-15T18:27:08.060Z,62.68
2019-05-15T18:29:38.663Z,62.66
2019-05-15T18:32:08.624Z,62.19
2019-05-15T18:34:39.592Z,62.16
2019-05-15T18:37:08.848Z,62.35
2019-05-15T18:39:38.969Z,62.13
2019-05-15T18:42:08.319Z,61.73
2019-05-15T18:44:39.359Z,61.50
2019-05-15T18:47:08.667Z,61.37
2019-05-15T18:49:38.097Z,61.32
2019-05-15T18:52:08.793Z,61.30
2019-05-15T18:54:38.725Z,61.12
2019-05-15T18:57:08.573Z,61.49
2019-05-15T18:59:37.943Z,61.34
2019-05-15T19:02:08.026Z,61.26
2019-05-15T19:04:38.347Z,61.11
2019-05-15T19:07:08.906Z,61.06
2019-05-15T19:09:38.603Z,61.10
2019-05-15T19:12:09.244Z,61.43
2019-05-15T19:14:39.495Z,61.23
2019-05-15T19:17:09.145Z,60.87
2019-05-15T19:19:38.826Z,60.96
2019-05-15T19:22:08.143Z,60.77
2019-05-15T19:24:39.871Z,60.56
2019-05-15T19:27:08.251Z,60.58
2019-05-15T19:29:37.830Z,60.50
2019-05-15T19:32:10.656Z,60.42
2019-05-15T19:34:38.769Z,60.24
2019-05-15T19:37:08.007Z,60.17
2019-05-15T19:39:38.539Z,60.29
2019-05-15T19:42:08.939Z,60.20
2019-05-15T19:44:38.109Z,59.46
2019-05-15T19:47:07.966Z,60.66
2019-05-15T19:49:37.858Z,61.70
2019-05-15T19:52:08.541Z,63.98
2019-05-15T19:54:37.904Z,69.09
2019-05-15T19:57:08.026Z,67.80
2019-05-15T19:59:38.163Z,66.38
2019-05-15T20:02:08.538Z,65.09
2019-05-15T20:04:38.569Z,64.28
2019-05-15T20:07:08.078Z,63.73
2019-05-15T20:09:38.328Z,63.00
2019-05-15T20:12:09.069Z,62.57
2019-05-15T20:14:38.408Z,62.13
2019-05-15T20:17:08.064Z,61.79
2019-05-15T20:19:38.305Z,61.75
2019-05-15T20:22:08.032Z,61.50
2019-05-15T20:24:38.177Z,61.31
2019-05-15T20:27:08.562Z,61.55
2019-05-15T20:29:38.316Z,61.64
2019-05-15T20:32:07.670Z,61.45
2019-05-15T20:34:37.934Z,61.26
2019-05-15T20:37:07.364Z,60.93
2019-05-15T20:39:38.194Z,61.18
2019-05-15T20:42:08.836Z,61.45
2019-05-15T20:44:38.031Z,61.46
2019-05-15T20:47:08.307Z,61.39
2019-05-15T20:49:37.858Z,61.05
2019-05-15T20:52:07.019Z,60.55
2019-05-15T20:54:38.614Z,60.73
2019-05-15T20:57:08.826Z,60.90
2019-05-15T20:59:38.688Z,61.46
2019-05-15T21:02:08.212Z,61.26
2019-05-15T21:04:38.518Z,61.36
2019-05-15T21:07:07.898Z,61.16
2019-05-15T21:09:39.516Z,60.60
2019-05-15T21:12:09.843Z,60.39
2019-05-15T21:14:40.106Z,60.40
2019-05-15T21:17:09.372Z,60.51
2019-05-15T21:19:38.688Z,60.24
2019-05-15T21:22:08.312Z,60.10
2019-05-15T21:24:38.626Z,60.01
2019-05-15T21:27:07.724Z,59.79
2019-05-15T21:29:38.175Z,59.48
2019-05-15T21:32:08.455Z,58.82
2019-05-15T21:34:43.893Z,59.30
2019-05-15T21:37:08.789Z,61.88
2019-05-15T21:39:39.192Z,63.64
2019-05-15T21:42:08.986Z,68.34
2019-05-15T21:44:38.308Z,67.85
2019-05-15T21:47:08.174Z,66.62
2019-05-15T21:49:38.798Z,65.04
2019-05-15T21:52:08.151Z,64.28
2019-05-15T21:54:38.608Z,63.55
2019-05-15T21:57:28.780Z,62.93
2019-05-15T21:59:38.527Z,62.45
2019-05-15T22:02:07.636Z,61.94
2019-05-15T22:04:49.063Z,61.64
2019-05-15T22:07:09.031Z,61.18
2019-05-15T22:09:38.301Z,60.60
2019-05-15T22:12:07.421Z,60.35
2019-05-15T22:14:37.888Z,60.06
2019-05-15T22:17:09.211Z,59.90
2019-05-15T22:19:38.503Z,59.30
2019-05-15T22:22:08.767Z,59.53
2019-05-15T22:24:38.029Z,60.75
2019-05-15T22:27:09.478Z,63.02
2019-05-15T22:29:38.035Z,66.91
2019-05-15T22:32:08.190Z,66.34
2019-05-15T22:34:37.388Z,65.11
2019-05-15T22:37:06.944Z,64.21
2019-05-15T22:39:38.518Z,63.61
2019-05-15T22:42:08.220Z,62.86
2019-05-15T22:44:38.599Z,62.27
2019-05-15T22:47:07.803Z,61.75
2019-05-15T22:49:38.073Z,61.72
2019-05-15T22:52:08.606Z,61.52
2019-05-15T22:54:38.691Z,61.15
2019-05-15T22:57:07.884Z,60.69
2019-05-15T22:59:38.276Z,60.70
2019-05-15T23:02:09.274Z,60.70
2019-05-15T23:04:38.204Z,60.67
2019-05-15T23:07:08.185Z,60.74
2019-05-15T23:09:38.385Z,60.57
2019-05-15T23:12:11.323Z,60.34
2019-05-15T23:14:39.229Z,60.41
2019-05-15T23:17:08.321Z,60.33
2019-05-15T23:19:38.580Z,60.62
2019-05-15T23:22:08.347Z,60.61
2019-05-15T23:24:38.751Z,60.55
2019-05-15T23:27:08.852Z,60.18
2019-05-15T23:29:38.703Z,60.21
2019-05-15T23:32:07.993Z,60.10
2019-05-15T23:34:38.602Z,60.09
2019-05-15T23:37:08.344Z,59.64
2019-05-15T23:39:38.046Z,59.34
2019-05-15T23:42:08.857Z,58.39
2019-05-15T23:44:38.183Z,59.72
2019-05-15T23:47:07.433Z,62.49
2019-05-15T23:49:38.224Z,66.36
2019-05-15T23:52:08.880Z,65.92
2019-05-15T23:54:38.627Z,64.64
2019-05-15T23:57:08.967Z,64.20
2019-05-15T23:59:38.492Z,62.98
